Airfield :
LOGIN :

Register | Disclaimer

   EN    FR    IT 

 










Legend :    VFR   Marginal VFR   IFR   Intensive IFR   Very Intensive IFR
Visi :
Ceiling :
>= 8 km
>= 3000ft
5 to 8 km
1000 to 3000 ft
1500m to 5 km
500 to 1000 ft
800 to 1500m
200 to 500 ft
< 800m
< 200 ft
Symbols :   Thunderstorms  Fog  Heavy snow  Heavy precipitations  Wind > 20 kt
SIGMETs :     Misc.  Thunderstorms  Icing  Turbulence  Mountain Waves  Volcanic Ashes






- Airport Elevation : 257 ft
- IATA code : MAN


EGCC - Manchester

CURRENT METAR :
  • 041220Z 27017KT 9999 SCT031 16/08 Q1021

EXPIRED METARs :
  • 041150Z AUTO 27017KT 9999 BKN029 BKN041 16/09 Q1020 NOSIG
  • 041120Z AUTO 28016KT 9999 SCT027 BKN034 17/09 Q1020 NOSIG
  • 041050Z AUTO 26015G25KT 9999 FEW025 SCT047 17/10 Q1020 NOSIG
  • 041020Z AUTO 28018KT 9999 FEW025 BKN036 16/09 Q1020 NOSIG
  • 040950Z AUTO 27017KT 9999 BKN037 16/09 Q1020 NOSIG

TAF TAF EGCC
Valid from the 04 at 12:00 until the 05 at 18:00 UTC


041054Z 0412/0518 26012KT 9999 SCT035
PROB30
TEMPO 0412/0416 27015G25KT
PROB40
TEMPO 0504/0511 7000 -RADZ BKN014
ATIS : +44 161 499 2324



MET'MAP, your aeronautical weather chart ! - Copyright ORBIFLY December 2007 - Disclaimer

ORBIFLY MET'MAP TEAM :

Programming & Development : Alexandra Zaïnal
Original concept : Baudouin d'Aumeries
Technical & hardware support : Manuel Goepfert
Assistance : Marc-Olivier Méhu




SOURCES & CREDITS :

   NOAA